createdAt,value
2018-11-06T00:02:14.469Z,11.64
2018-11-06T00:04:50.011Z,11.59
2018-11-06T00:07:20.760Z,11.64
2018-11-06T00:09:51.280Z,11.61
2018-11-06T00:12:21.803Z,11.61
2018-11-06T00:14:52.399Z,11.64
2018-11-06T00:17:23.015Z,11.56
2018-11-06T00:22:33.650Z,11.63
2018-11-06T00:25:04.208Z,11.61
2018-11-06T00:27:34.729Z,11.65
2018-11-06T00:30:05.430Z,11.71
2018-11-06T00:32:36.045Z,11.73
2018-11-06T00:35:07.171Z,11.76
2018-11-06T00:37:37.698Z,11.79
2018-11-06T00:40:08.655Z,11.81
2018-11-06T00:42:39.398Z,11.83
2018-11-06T00:45:15.251Z,11.83
2018-11-06T00:47:45.801Z,11.88
2018-11-06T00:50:16.289Z,11.89
2018-11-06T00:52:46.984Z,12.00
2018-11-06T00:55:17.729Z,12.02
2018-11-06T00:57:48.164Z,11.97
2018-11-06T01:00:19.797Z,12.00
2018-11-06T01:02:50.469Z,12.01
2018-11-06T01:05:21.058Z,12.00
2018-11-06T01:07:51.777Z,11.98
2018-11-06T01:10:22.218Z,12.00
2018-11-06T01:12:52.686Z,11.97
2018-11-06T01:15:23.239Z,11.94
2018-11-06T01:17:53.744Z,11.92
2018-11-06T01:20:24.555Z,11.95
2018-11-06T01:22:54.984Z,11.93
2018-11-06T01:25:25.594Z,12.01
2018-11-06T01:27:56.082Z,12.00
2018-11-06T01:30:26.501Z,12.01
2018-11-06T01:32:57.015Z,12.00
2018-11-06T01:35:27.498Z,11.99
2018-11-06T01:37:58.085Z,11.98
2018-11-06T01:40:28.905Z,11.99
2018-11-06T01:42:59.394Z,12.02
2018-11-06T01:45:29.963Z,12.01
2018-11-06T01:48:00.424Z,12.08
2018-11-06T01:50:30.956Z,12.11
2018-11-06T01:53:01.467Z,12.04
2018-11-06T01:55:32.000Z,12.07
2018-11-06T01:58:02.565Z,12.06
2018-11-06T02:00:34.245Z,11.97
2018-11-06T02:03:04.714Z,12.01
2018-11-06T02:05:35.211Z,11.93
2018-11-06T02:08:05.962Z,11.91
2018-11-06T02:10:37.508Z,11.91
2018-11-06T02:13:08.279Z,11.95
2018-11-06T02:15:38.809Z,11.98
2018-11-06T02:18:09.338Z,11.98
2018-11-06T02:20:39.931Z,11.88
2018-11-06T02:23:10.455Z,11.86
2018-11-06T02:25:40.837Z,11.82
2018-11-06T02:28:11.302Z,11.77
2018-11-06T02:30:41.823Z,11.83
2018-11-06T02:33:12.496Z,11.76
2018-11-06T02:35:43.267Z,11.75
2018-11-06T02:38:13.765Z,11.74
2018-11-06T02:40:44.465Z,11.66
2018-11-06T02:43:15.012Z,11.70
2018-11-06T02:45:45.570Z,11.71
2018-11-06T02:48:16.119Z,11.73
2018-11-06T02:50:46.583Z,11.78
2018-11-06T02:53:17.213Z,11.80
2018-11-06T02:55:47.697Z,11.80
2018-11-06T02:58:18.139Z,11.80
2018-11-06T03:00:48.693Z,11.79
2018-11-06T03:03:19.211Z,11.84
2018-11-06T03:05:50.602Z,11.82
2018-11-06T03:08:21.169Z,11.76
2018-11-06T03:10:52.230Z,11.72
2018-11-06T03:13:22.723Z,11.72
2018-11-06T03:15:53.202Z,11.63
2018-11-06T03:18:23.669Z,11.67
2018-11-06T03:20:54.233Z,11.23
2018-11-06T03:23:24.699Z,11.55
2018-11-06T03:25:55.217Z,11.57
2018-11-06T03:28:25.683Z,11.52
2018-11-06T03:30:56.150Z,11.45
2018-11-06T03:33:26.677Z,11.49
2018-11-06T03:35:57.154Z,11.45
2018-11-06T03:38:27.610Z,11.47
2018-11-06T03:40:58.567Z,11.48
2018-11-06T03:43:29.254Z,11.44
2018-11-06T03:45:59.765Z,11.42
2018-11-06T03:48:30.232Z,11.41
2018-11-06T03:53:40.683Z,11.45
2018-11-06T03:56:11.241Z,11.50
2018-11-06T03:58:42.267Z,11.50
2018-11-06T04:01:12.852Z,11.53
2018-11-06T04:03:44.415Z,11.53
2018-11-06T04:06:14.945Z,11.48
2018-11-06T04:08:45.561Z,11.52
2018-11-06T04:11:16.377Z,11.48
2018-11-06T04:16:27.737Z,11.51
2018-11-06T04:18:58.263Z,11.47
2018-11-06T04:21:37.263Z,11.48
2018-11-06T04:24:13.533Z,11.41
2018-11-06T04:26:45.836Z,11.39
2018-11-06T04:29:16.359Z,11.42
2018-11-06T04:31:46.890Z,11.43
2018-11-06T04:34:17.586Z,11.43
2018-11-06T04:36:48.085Z,11.46
2018-11-06T04:39:18.590Z,11.36
2018-11-06T04:41:49.263Z,11.41
2018-11-06T04:44:19.805Z,11.43
2018-11-06T04:46:50.281Z,11.46
2018-11-06T04:49:21.402Z,11.43
2018-11-06T04:51:51.880Z,11.40
2018-11-06T04:54:22.461Z,11.38
2018-11-06T04:56:53.017Z,11.42
2018-11-06T04:59:23.514Z,11.40
2018-11-06T05:01:54.034Z,11.38
2018-11-06T05:04:24.584Z,11.39
2018-11-06T05:06:55.113Z,11.46
2018-11-06T05:09:25.760Z,11.50
2018-11-06T05:11:57.233Z,11.47
2018-11-06T05:14:27.872Z,11.53
2018-11-06T05:16:58.404Z,11.50
2018-11-06T05:19:28.885Z,11.53
2018-11-06T05:21:59.498Z,11.46
2018-11-06T05:24:29.973Z,11.46
2018-11-06T05:27:00.580Z,11.43
2018-11-06T05:29:31.153Z,11.46
2018-11-06T05:32:01.655Z,11.51
2018-11-06T05:34:32.325Z,11.53
2018-11-06T05:37:02.809Z,11.61
2018-11-06T05:39:33.277Z,11.57
2018-11-06T05:42:03.898Z,11.58
2018-11-06T05:44:35.308Z,11.49
2018-11-06T05:47:05.862Z,11.48
2018-11-06T05:49:36.316Z,11.45
2018-11-06T05:52:07.093Z,11.45
2018-11-06T05:54:38.607Z,11.46
2018-11-06T05:57:09.195Z,11.45
2018-11-06T05:59:39.929Z,11.53
2018-11-06T06:02:10.433Z,11.55
2018-11-06T06:04:41.070Z,11.52
2018-11-06T06:07:11.621Z,11.51
2018-11-06T06:09:42.293Z,11.59
2018-11-06T06:12:13.367Z,11.59
2018-11-06T06:14:44.014Z,11.62
2018-11-06T06:17:15.190Z,11.62
2018-11-06T06:19:45.638Z,11.67
2018-11-06T06:22:16.186Z,11.72
2018-11-06T06:24:46.797Z,11.68
2018-11-06T06:27:17.333Z,11.68
2018-11-06T06:29:47.898Z,11.66
2018-11-06T06:32:18.362Z,11.55
2018-11-06T06:34:49.056Z,11.60
2018-11-06T06:37:19.686Z,11.67
2018-11-06T06:39:50.283Z,11.63
2018-11-06T06:42:20.869Z,11.64
2018-11-06T06:44:51.405Z,11.59
2018-11-06T06:47:21.971Z,11.62
2018-11-06T06:49:52.604Z,11.68
2018-11-06T06:52:23.128Z,11.74
2018-11-06T06:54:53.926Z,11.75
2018-11-06T06:57:24.349Z,11.75
2018-11-06T06:59:54.924Z,11.81
2018-11-06T07:02:25.495Z,11.77
2018-11-06T07:04:56.044Z,11.76
2018-11-06T07:07:27.607Z,11.74
2018-11-06T07:09:58.221Z,11.64
2018-11-06T07:12:28.944Z,11.62
2018-11-06T07:15:00.457Z,11.67
2018-11-06T07:17:30.981Z,11.71
2018-11-06T07:20:01.729Z,11.68
2018-11-06T07:22:32.210Z,11.73
2018-11-06T07:25:02.759Z,11.75
2018-11-06T07:27:33.353Z,11.73
2018-11-06T07:30:03.772Z,11.79
2018-11-06T07:32:35.147Z,11.82
2018-11-06T07:35:06.696Z,11.77
2018-11-06T07:37:37.291Z,11.77
2018-11-06T07:40:09.323Z,11.80
2018-11-06T07:42:40.569Z,11.91
2018-11-06T07:45:16.245Z,11.93
2018-11-06T07:47:46.763Z,11.95
2018-11-06T07:50:17.309Z,11.95
2018-11-06T07:52:47.816Z,11.94
2018-11-06T07:55:19.604Z,11.92
2018-11-06T07:57:50.189Z,11.90
2018-11-06T08:00:23.244Z,11.93
2018-11-06T08:02:53.728Z,11.99
2018-11-06T08:05:30.482Z,12.09
2018-11-06T08:08:03.084Z,12.05
2018-11-06T08:10:33.669Z,12.12
2018-11-06T08:13:05.253Z,12.11
2018-11-06T08:15:35.946Z,12.13
2018-11-06T08:18:06.585Z,12.10
2018-11-06T08:20:37.103Z,12.16
2018-11-06T08:23:07.732Z,12.20
2018-11-06T08:25:38.183Z,12.25
2018-11-06T08:28:08.786Z,12.28
2018-11-06T08:30:39.433Z,12.36
2018-11-06T08:33:09.933Z,12.45
2018-11-06T08:35:40.470Z,12.55
2018-11-06T08:38:12.826Z,12.67
2018-11-06T08:40:43.240Z,12.67
2018-11-06T08:43:13.966Z,12.73
2018-11-06T08:45:44.437Z,12.69
2018-11-06T08:48:14.974Z,12.68
2018-11-06T08:50:45.542Z,12.57
2018-11-06T08:53:16.075Z,12.69
2018-11-06T08:55:46.869Z,12.67
2018-11-06T08:58:17.336Z,12.69
2018-11-06T09:00:47.880Z,12.74
2018-11-06T09:03:18.444Z,12.64
2018-11-06T09:05:48.900Z,12.49
2018-11-06T09:08:19.388Z,12.46
2018-11-06T09:10:49.913Z,12.52
2018-11-06T09:13:20.434Z,12.46
2018-11-06T09:15:50.976Z,12.40
2018-11-06T09:21:01.418Z,12.30
2018-11-06T09:23:31.912Z,12.30
2018-11-06T09:26:02.495Z,12.39
2018-11-06T09:28:33.022Z,12.25
2018-11-06T09:31:03.711Z,12.17
2018-11-06T09:33:34.210Z,12.11
2018-11-06T09:36:04.703Z,12.15
2018-11-06T09:38:35.349Z,12.17
2018-11-06T09:41:05.983Z,12.21
2018-11-06T09:43:36.554Z,12.15
2018-11-06T09:46:07.183Z,12.05
2018-11-06T09:48:37.712Z,11.93
2018-11-06T09:51:08.229Z,11.87
2018-11-06T09:53:38.845Z,11.78
2018-11-06T09:56:09.468Z,11.76
2018-11-06T09:58:39.997Z,11.69
2018-11-06T10:01:10.677Z,11.76
2018-11-06T10:03:41.209Z,11.75
2018-11-06T10:06:11.648Z,11.68
2018-11-06T10:08:42.350Z,11.76
2018-11-06T10:11:12.967Z,11.77
2018-11-06T10:13:43.439Z,11.74
2018-11-06T10:16:13.962Z,11.67
2018-11-06T10:18:44.861Z,11.74
2018-11-06T10:21:15.258Z,11.73
2018-11-06T10:23:46.770Z,11.69
2018-11-06T10:26:17.276Z,11.66
2018-11-06T10:28:47.848Z,11.67
2018-11-06T10:31:18.350Z,11.64
2018-11-06T10:33:48.780Z,11.64
2018-11-06T10:36:19.390Z,11.58
2018-11-06T10:38:50.268Z,11.56
2018-11-06T10:41:20.824Z,11.64
2018-11-06T10:43:51.338Z,11.68
2018-11-06T10:46:21.953Z,11.57
2018-11-06T10:48:52.625Z,11.56
2018-11-06T10:51:23.157Z,11.53
2018-11-06T10:53:53.688Z,11.52
2018-11-06T10:56:24.120Z,11.59
2018-11-06T10:58:54.706Z,11.61
2018-11-06T11:01:29.894Z,11.59
2018-11-06T11:04:05.271Z,11.54
2018-11-06T11:06:35.797Z,11.59
2018-11-06T11:09:08.352Z,11.63
2018-11-06T11:11:38.898Z,11.63
2018-11-06T11:14:09.381Z,11.68
2018-11-06T11:16:41.113Z,11.65
2018-11-06T11:19:11.837Z,11.66
2018-11-06T11:21:42.535Z,11.62
2018-11-06T11:24:13.139Z,11.65
2018-11-06T11:26:43.616Z,11.73
2018-11-06T11:29:14.187Z,11.64
2018-11-06T11:31:44.819Z,11.56
2018-11-06T11:34:15.365Z,11.63
2018-11-06T11:36:46.045Z,11.62
2018-11-06T11:39:16.850Z,11.62
2018-11-06T11:41:47.446Z,11.55
2018-11-06T11:44:18.090Z,11.57
2018-11-06T11:46:48.773Z,11.57
2018-11-06T11:49:19.471Z,11.60
2018-11-06T11:51:50.031Z,11.53
2018-11-06T11:54:20.566Z,11.53
2018-11-06T11:56:51.382Z,11.51
2018-11-06T11:59:22.124Z,11.56
2018-11-06T12:01:52.755Z,11.62
2018-11-06T12:04:23.582Z,11.64
2018-11-06T12:06:54.175Z,11.62
2018-11-06T12:09:24.740Z,11.60
2018-11-06T12:11:55.311Z,11.60
2018-11-06T12:14:26.307Z,11.64
2018-11-06T12:16:56.833Z,11.65
2018-11-06T12:19:27.649Z,11.68
2018-11-06T12:21:58.212Z,11.69
2018-11-06T12:24:28.900Z,11.64
2018-11-06T12:26:59.474Z,11.63
2018-11-06T12:29:30.098Z,11.65
2018-11-06T12:32:00.709Z,11.74
2018-11-06T12:34:31.261Z,11.77
2018-11-06T12:37:01.888Z,11.71
2018-11-06T12:39:32.664Z,11.69
2018-11-06T12:42:03.168Z,11.71
2018-11-06T12:44:33.659Z,11.67
2018-11-06T12:47:04.252Z,11.71
2018-11-06T12:49:34.918Z,11.83
2018-11-06T12:52:05.576Z,11.76
2018-11-06T12:54:36.018Z,11.84
2018-11-06T12:57:06.652Z,11.90
2018-11-06T12:59:37.138Z,11.92
2018-11-06T13:02:07.849Z,11.92
2018-11-06T13:04:38.332Z,11.90
2018-11-06T13:07:08.765Z,11.99
2018-11-06T13:09:39.272Z,12.08
2018-11-06T13:12:09.812Z,12.11
2018-11-06T13:14:40.341Z,12.07
2018-11-06T13:17:11.055Z,12.06
2018-11-06T13:19:41.757Z,12.03
2018-11-06T13:22:12.261Z,11.99
2018-11-06T13:24:42.653Z,12.01
2018-11-06T13:27:13.244Z,11.99
2018-11-06T13:29:43.763Z,12.01
2018-11-06T13:32:14.467Z,11.91
2018-11-06T13:34:45.849Z,11.88
2018-11-06T13:37:16.363Z,11.88
2018-11-06T13:39:47.233Z,11.85
2018-11-06T13:42:17.937Z,11.84
2018-11-06T13:44:48.725Z,11.80
2018-11-06T13:47:19.309Z,11.81
2018-11-06T13:49:49.798Z,11.77
2018-11-06T13:52:20.498Z,11.75
2018-11-06T13:54:51.091Z,11.77
2018-11-06T13:57:21.982Z,11.78
2018-11-06T13:59:52.701Z,11.63
2018-11-06T14:02:23.135Z,11.66
2018-11-06T14:04:53.630Z,11.71
2018-11-06T14:07:24.280Z,11.64
2018-11-06T14:09:54.939Z,11.74
2018-11-06T14:12:25.507Z,11.77
2018-11-06T14:14:55.936Z,11.81
2018-11-06T14:17:26.534Z,11.79
2018-11-06T14:19:57.293Z,11.67
2018-11-06T14:22:27.725Z,11.63
2018-11-06T14:24:58.332Z,11.65
2018-11-06T14:27:29.390Z,11.59
2018-11-06T14:30:00.233Z,11.66
2018-11-06T14:32:30.814Z,11.57
2018-11-06T14:35:01.368Z,11.54
2018-11-06T14:37:32.123Z,11.56
2018-11-06T14:40:03.017Z,11.57
2018-11-06T14:42:33.628Z,11.48
2018-11-06T14:45:04.225Z,11.39
2018-11-06T14:47:34.734Z,11.40
2018-11-06T14:50:06.353Z,11.43
2018-11-06T14:52:37.256Z,11.40
2018-11-06T14:55:10.990Z,11.32
2018-11-06T14:57:41.653Z,11.33
2018-11-06T15:00:14.858Z,11.32
2018-11-06T15:02:47.040Z,11.25
2018-11-06T15:05:18.390Z,11.25
2018-11-06T15:07:48.830Z,11.23
2018-11-06T15:10:19.574Z,11.23
2018-11-06T15:12:50.130Z,11.21
2018-11-06T15:15:20.642Z,11.19
2018-11-06T15:17:51.191Z,11.19
2018-11-06T15:20:22.840Z,11.18
2018-11-06T15:22:53.338Z,11.08
2018-11-06T15:25:23.874Z,11.12
2018-11-06T15:27:54.343Z,11.08
2018-11-06T15:30:24.945Z,11.13
2018-11-06T15:32:55.446Z,11.02
2018-11-06T15:35:26.070Z,11.00
2018-11-06T15:37:56.504Z,10.96
2018-11-06T15:40:27.324Z,10.86
2018-11-06T15:42:57.815Z,10.90
2018-11-06T15:45:28.439Z,10.88
2018-11-06T15:47:58.917Z,10.84
2018-11-06T15:50:30.489Z,10.79
2018-11-06T15:53:01.073Z,10.75
2018-11-06T15:55:31.664Z,10.69
2018-11-06T15:58:02.264Z,10.73
2018-11-06T16:00:33.103Z,10.67
2018-11-06T16:03:03.619Z,10.72
2018-11-06T16:05:34.158Z,10.63
2018-11-06T16:08:04.743Z,10.64
2018-11-06T16:10:35.210Z,10.53
2018-11-06T16:13:06.056Z,10.64
2018-11-06T16:15:36.654Z,10.53
2018-11-06T16:18:07.314Z,10.49
2018-11-06T16:20:39.012Z,10.51
2018-11-06T16:23:09.514Z,10.53
2018-11-06T16:25:40.072Z,10.54
2018-11-06T16:28:10.562Z,10.50
2018-11-06T16:30:41.076Z,10.50
2018-11-06T16:33:11.642Z,10.58
2018-11-06T16:35:42.167Z,10.65
2018-11-06T16:38:12.596Z,10.62
2018-11-06T16:40:43.414Z,10.68
2018-11-06T16:43:13.944Z,10.63
2018-11-06T16:45:44.492Z,10.64
2018-11-06T16:48:15.043Z,10.70
2018-11-06T16:50:45.561Z,10.68
2018-11-06T16:53:16.090Z,10.75
2018-11-06T16:55:46.590Z,10.79
2018-11-06T16:58:17.175Z,10.79
2018-11-06T17:00:47.984Z,10.74
2018-11-06T17:03:18.392Z,10.75
2018-11-06T17:05:49.067Z,10.81
2018-11-06T17:08:19.572Z,10.84
2018-11-06T17:10:50.094Z,10.84
2018-11-06T17:13:20.552Z,10.91
2018-11-06T17:15:51.181Z,10.89
2018-11-06T17:18:21.583Z,10.89
2018-11-06T17:20:52.996Z,10.84
2018-11-06T17:23:23.459Z,10.79
2018-11-06T17:25:53.903Z,10.74
2018-11-06T17:28:24.361Z,10.71
2018-11-06T17:30:54.820Z,10.78
2018-11-06T17:33:25.331Z,10.79
2018-11-06T17:35:55.954Z,10.75
2018-11-06T17:38:26.566Z,10.75
2018-11-06T17:40:57.197Z,10.74
2018-11-06T17:43:27.848Z,10.69
2018-11-06T17:45:58.413Z,10.78
2018-11-06T17:48:28.961Z,10.74
2018-11-06T17:50:59.485Z,10.63
2018-11-06T17:53:30.003Z,10.66
2018-11-06T17:56:00.449Z,10.57
2018-11-06T17:58:30.912Z,10.50
2018-11-06T18:01:01.829Z,10.42
2018-11-06T18:03:32.471Z,10.35
2018-11-06T18:06:02.983Z,10.27
2018-11-06T18:08:34.402Z,10.23
2018-11-06T18:11:04.873Z,10.26
2018-11-06T18:13:35.322Z,10.23
2018-11-06T18:16:06.150Z,10.21
2018-11-06T18:18:36.583Z,10.19
2018-11-06T18:21:07.408Z,10.20
2018-11-06T18:23:37.902Z,10.27
2018-11-06T18:26:08.564Z,10.20
2018-11-06T18:28:39.042Z,10.21
2018-11-06T18:31:09.488Z,10.24
2018-11-06T18:33:39.989Z,10.15
2018-11-06T18:36:10.563Z,10.06
2018-11-06T18:38:40.999Z,10.09
2018-11-06T18:41:11.876Z,10.12
2018-11-06T18:43:42.493Z,10.21
2018-11-06T18:46:13.115Z,10.19
2018-11-06T18:48:43.649Z,10.21
2018-11-06T18:51:14.197Z,10.16
2018-11-06T18:53:44.658Z,10.12
2018-11-06T18:56:15.133Z,10.10
2018-11-06T18:58:45.666Z,10.07
2018-11-06T19:01:16.230Z,10.07
2018-11-06T19:03:46.764Z,10.02
2018-11-06T19:06:17.319Z,9.97
2018-11-06T19:08:47.845Z,9.96
2018-11-06T19:11:18.360Z,9.91
2018-11-06T19:13:48.940Z,9.95
2018-11-06T19:16:19.493Z,9.90
2018-11-06T19:18:49.939Z,9.83
2018-11-06T19:21:20.748Z,9.77
2018-11-06T19:23:51.308Z,9.77
2018-11-06T19:26:21.789Z,9.75
2018-11-06T19:28:52.472Z,9.72
2018-11-06T19:31:23.044Z,9.68
2018-11-06T19:33:53.611Z,9.58
2018-11-06T19:36:24.152Z,9.50
2018-11-06T19:38:54.619Z,9.54
2018-11-06T19:41:25.425Z,9.54
2018-11-06T19:43:55.874Z,9.59
2018-11-06T19:46:26.373Z,9.54
2018-11-06T19:48:57.525Z,9.51
2018-11-06T19:51:28.076Z,9.43
2018-11-06T19:53:58.653Z,9.43
2018-11-06T19:56:29.330Z,9.40
2018-11-06T19:58:59.741Z,9.41
2018-11-06T20:01:30.569Z,9.35
2018-11-06T20:04:01.080Z,9.30
2018-11-06T20:06:31.540Z,9.34
2018-11-06T20:09:02.105Z,9.28
2018-11-06T20:11:32.611Z,9.25
2018-11-06T20:14:03.293Z,9.21
2018-11-06T20:16:33.955Z,9.21
2018-11-06T20:19:04.654Z,9.20
2018-11-06T20:21:35.395Z,9.17
2018-11-06T20:24:06.065Z,9.19
2018-11-06T20:26:36.617Z,9.21
2018-11-06T20:29:07.108Z,9.18
2018-11-06T20:31:38.033Z,9.20
2018-11-06T20:34:08.622Z,9.20
2018-11-06T20:36:39.029Z,9.25
2018-11-06T20:39:10.664Z,9.20
2018-11-06T20:41:41.459Z,9.25
2018-11-06T20:44:11.928Z,9.21
2018-11-06T20:46:42.489Z,9.25
2018-11-06T20:49:13.107Z,9.31
2018-11-06T20:51:43.600Z,9.36
2018-11-06T20:54:14.094Z,9.38
2018-11-06T20:56:44.593Z,9.38
2018-11-06T20:59:15.076Z,9.39
2018-11-06T21:01:45.950Z,9.43
2018-11-06T21:04:16.577Z,9.38
2018-11-06T21:06:47.066Z,9.50
2018-11-06T21:09:17.516Z,9.52
2018-11-06T21:11:48.008Z,9.62
2018-11-06T21:14:19.513Z,9.65
2018-11-06T21:16:49.924Z,9.70
2018-11-06T21:19:20.407Z,9.72
2018-11-06T21:21:51.054Z,9.79
2018-11-06T21:24:21.545Z,9.75
2018-11-06T21:26:52.128Z,9.78
2018-11-06T21:29:22.623Z,9.74
2018-11-06T21:31:53.094Z,9.74
2018-11-06T21:34:23.599Z,9.85
2018-11-06T21:36:54.117Z,9.84
2018-11-06T21:39:24.544Z,9.86
2018-11-06T21:41:55.247Z,9.78
2018-11-06T21:44:25.957Z,9.76
2018-11-06T21:46:56.631Z,9.84
2018-11-06T21:49:27.257Z,9.81
2018-11-06T21:51:57.743Z,9.83
2018-11-06T21:54:28.229Z,9.78
2018-11-06T21:56:58.804Z,9.72
2018-11-06T21:59:29.311Z,9.80
2018-11-06T22:02:00.178Z,9.84
2018-11-06T22:04:30.649Z,9.78
2018-11-06T22:07:01.104Z,9.76
2018-11-06T22:09:31.753Z,9.85
2018-11-06T22:12:02.282Z,9.84
2018-11-06T22:14:32.846Z,9.75
2018-11-06T22:17:03.360Z,9.81
2018-11-06T22:19:33.925Z,9.80
2018-11-06T22:22:04.799Z,9.75
2018-11-06T22:24:35.309Z,9.72
2018-11-06T22:27:05.858Z,9.64
2018-11-06T22:29:36.368Z,9.62
2018-11-06T22:32:07.254Z,9.57
2018-11-06T22:34:37.649Z,9.60
2018-11-06T22:37:08.249Z,9.50
2018-11-06T22:39:38.681Z,9.51
2018-11-06T22:42:09.247Z,9.48
2018-11-06T22:44:39.704Z,9.51
2018-11-06T22:47:10.180Z,9.48
2018-11-06T22:49:40.678Z,9.53
2018-11-06T22:52:11.239Z,9.53
2018-11-06T22:54:41.712Z,9.53
2018-11-06T22:57:12.249Z,9.53
2018-11-06T22:59:42.773Z,9.50
2018-11-06T23:02:13.295Z,9.54
2018-11-06T23:04:43.904Z,9.62
2018-11-06T23:07:19.208Z,9.56
2018-11-06T23:09:49.749Z,9.52
2018-11-06T23:12:20.283Z,9.52
2018-11-06T23:14:51.012Z,9.54
2018-11-06T23:17:21.511Z,9.53
2018-11-06T23:19:52.051Z,9.60
2018-11-06T23:22:22.690Z,9.58
2018-11-06T23:24:53.281Z,9.59
2018-11-06T23:27:24.011Z,9.66
2018-11-06T23:29:54.668Z,9.69
2018-11-06T23:32:25.226Z,9.67
2018-11-06T23:34:56.296Z,9.75
2018-11-06T23:37:26.849Z,9.74
2018-11-06T23:39:57.306Z,9.72
2018-11-06T23:42:27.860Z,9.70
2018-11-06T23:44:59.126Z,9.76
2018-11-06T23:47:29.552Z,9.74
2018-11-06T23:50:00.028Z,9.62
2018-11-06T23:52:30.728Z,9.57
2018-11-06T23:55:01.311Z,9.61
2018-11-06T23:57:31.829Z,9.57
